Terminal Aerodrome Forecast
Issued by NWS

Home | Current Version | Previous Version | Text Only | Print | Product List | Glossary On
Versions: 1 2 3 4 5 6 7 8 9 10 11 12 13 14 15 16 17 18 19 20 21 22 23 24 25 26 27 28 29 30 31 32 33 34 35 36 37 38 39 40 41 42 43
000
FTUS43 KMKX 300149 AAA
TAFENW
TAF AMD
KENW 300149Z 3002/3024 17012KT P6SM SCT040 BKN120 BKN200
     FM300300 17010KT P6SM VCTS SCT035CB BKN100
      TEMPO 3003/3005 6SM -TSRA BKN035CB
     FM300500 18010KT P6SM VCTS SCT012 OVC035CB
      TEMPO 3005/3008 3SM TSRA BKN012CB
     FM300800 19010KT 6SM -TSRA BR SCT008 OVC030CB
     FM301200 20009KT 5SM -TSRA BR OVC020CB
     FM301500 22010KT 6SM -SHRA OVC018
     FM301700 22010KT P6SM VCSH BKN025=

USA.gov is the U.S. government's official web portal to all federal, state and local government web resources and services.